sensor_id;sensor_type;location;lat;lon;timestamp;P1;durP1;ratioP1;P2;durP2;ratioP2
26413;SDS011;14108;53.668;10.288;2022-12-18T00:02:07;30.20;;;15.43;;
26413;SDS011;14108;53.668;10.288;2022-12-18T00:04:37;28.55;;;15.73;;
26413;SDS011;14108;53.668;10.288;2022-12-18T00:07:04;26.17;;;13.57;;
26413;SDS011;14108;53.668;10.288;2022-12-18T00:09:31;26.05;;;14.27;;
26413;SDS011;14108;53.668;10.288;2022-12-18T00:11:58;29.83;;;15.50;;
26413;SDS011;14108;53.668;10.288;2022-12-18T00:14:25;29.25;;;15.73;;
26413;SDS011;14108;53.668;10.288;2022-12-18T00:16:53;28.75;;;14.95;;
26413;SDS011;14108;53.668;10.288;2022-12-18T00:19:20;27.58;;;15.65;;
26413;SDS011;14108;53.668;10.288;2022-12-18T00:21:47;26.55;;;13.77;;
26413;SDS011;14108;53.668;10.288;2022-12-18T00:24:14;28.30;;;14.27;;
26413;SDS011;14108;53.668;10.288;2022-12-18T00:26:50;24.95;;;14.57;;
26413;SDS011;14108;53.668;10.288;2022-12-18T00:29:17;32.28;;;14.87;;
26413;SDS011;14108;53.668;10.288;2022-12-18T00:31:44;28.35;;;14.57;;
26413;SDS011;14108;53.668;10.288;2022-12-18T00:34:12;27.73;;;14.38;;
26413;SDS011;14108;53.668;10.288;2022-12-18T00:36:39;26.80;;;14.57;;
26413;SDS011;14108;53.668;10.288;2022-12-18T00:39:07;26.27;;;14.50;;
26413;SDS011;14108;53.668;10.288;2022-12-18T00:41:36;27.35;;;14.52;;
26413;SDS011;14108;53.668;10.288;2022-12-18T00:44:22;27.02;;;14.63;;
26413;SDS011;14108;53.668;10.288;2022-12-18T00:46:49;29.58;;;15.10;;
26413;SDS011;14108;53.668;10.288;2022-12-18T00:49:16;26.08;;;13.40;;
26413;SDS011;14108;53.668;10.288;2022-12-18T00:51:44;27.95;;;13.98;;
26413;SDS011;14108;53.668;10.288;2022-12-18T00:54:12;24.08;;;13.52;;
26413;SDS011;14108;53.668;10.288;2022-12-18T00:56:40;25.58;;;13.15;;
26413;SDS011;14108;53.668;10.288;2022-12-18T00:59:07;28.25;;;13.27;;
26413;SDS011;14108;53.668;10.288;2022-12-18T01:01:34;23.75;;;13.00;;
26413;SDS011;14108;53.668;10.288;2022-12-18T01:04:01;29.05;;;13.68;;
26413;SDS011;14108;53.668;10.288;2022-12-18T01:06:29;26.27;;;12.98;;
26413;SDS011;14108;53.668;10.288;2022-12-18T01:08:57;26.05;;;13.85;;
26413;SDS011;14108;53.668;10.288;2022-12-18T01:11:24;27.20;;;14.15;;
26413;SDS011;14108;53.668;10.288;2022-12-18T01:13:52;24.95;;;13.62;;
26413;SDS011;14108;53.668;10.288;2022-12-18T01:16:20;20.65;;;12.63;;
26413;SDS011;14108;53.668;10.288;2022-12-18T01:18:49;27.73;;;13.48;;
26413;SDS011;14108;53.668;10.288;2022-12-18T01:21:19;24.30;;;13.00;;
26413;SDS011;14108;53.668;10.288;2022-12-18T01:23:51;24.92;;;13.50;;
26413;SDS011;14108;53.668;10.288;2022-12-18T01:26:19;28.45;;;13.90;;
26413;SDS011;14108;53.668;10.288;2022-12-18T01:28:55;22.92;;;12.37;;
26413;SDS011;14108;53.668;10.288;2022-12-18T01:31:23;19.40;;;12.27;;
26413;SDS011;14108;53.668;10.288;2022-12-18T01:33:52;24.83;;;13.07;;
26413;SDS011;14108;53.668;10.288;2022-12-18T01:36:21;19.05;;;11.90;;
26413;SDS011;14108;53.668;10.288;2022-12-18T01:38:49;28.27;;;14.10;;
26413;SDS011;14108;53.668;10.288;2022-12-18T01:41:18;20.77;;;11.77;;
26413;SDS011;14108;53.668;10.288;2022-12-18T01:43:49;25.10;;;12.90;;
26413;SDS011;14108;53.668;10.288;2022-12-18T01:46:19;21.77;;;12.30;;
26413;SDS011;14108;53.668;10.288;2022-12-18T01:48:48;21.20;;;11.95;;
26413;SDS011;14108;53.668;10.288;2022-12-18T01:51:17;25.62;;;12.13;;
26413;SDS011;14108;53.668;10.288;2022-12-18T01:53:44;21.92;;;11.10;;
26413;SDS011;14108;53.668;10.288;2022-12-18T01:56:14;19.05;;;12.05;;
26413;SDS011;14108;53.668;10.288;2022-12-18T01:58:45;20.85;;;12.68;;
26413;SDS011;14108;53.668;10.288;2022-12-18T02:01:18;23.95;;;12.98;;
26413;SDS011;14108;53.668;10.288;2022-12-18T02:03:47;21.08;;;12.02;;
26413;SDS011;14108;53.668;10.288;2022-12-18T02:06:15;27.27;;;13.57;;
26413;SDS011;14108;53.668;10.288;2022-12-18T02:08:53;22.55;;;13.02;;
26413;SDS011;14108;53.668;10.288;2022-12-18T02:11:30;25.20;;;12.25;;
26413;SDS011;14108;53.668;10.288;2022-12-18T02:14:07;23.27;;;13.15;;
26413;SDS011;14108;53.668;10.288;2022-12-18T02:16:44;24.58;;;12.93;;
26413;SDS011;14108;53.668;10.288;2022-12-18T02:19:19;22.70;;;12.50;;
26413;SDS011;14108;53.668;10.288;2022-12-18T02:22:03;23.20;;;11.60;;
26413;SDS011;14108;53.668;10.288;2022-12-18T02:24:41;24.05;;;11.90;;
26413;SDS011;14108;53.668;10.288;2022-12-18T02:27:17;23.42;;;12.30;;
26413;SDS011;14108;53.668;10.288;2022-12-18T02:29:47;23.25;;;12.23;;
26413;SDS011;14108;53.668;10.288;2022-12-18T02:32:17;24.48;;;12.35;;
26413;SDS011;14108;53.668;10.288;2022-12-18T02:38:13;24.27;;;11.82;;
26413;SDS011;14108;53.668;10.288;2022-12-18T02:40:42;24.67;;;12.88;;
26413;SDS011;14108;53.668;10.288;2022-12-18T02:43:10;21.92;;;12.05;;
26413;SDS011;14108;53.668;10.288;2022-12-18T02:45:46;24.83;;;12.10;;
26413;SDS011;14108;53.668;10.288;2022-12-18T02:48:15;21.48;;;11.55;;
26413;SDS011;14108;53.668;10.288;2022-12-18T02:50:45;24.23;;;12.27;;
26413;SDS011;14108;53.668;10.288;2022-12-18T02:53:23;26.20;;;11.52;;
26413;SDS011;14108;53.668;10.288;2022-12-18T02:55:55;23.52;;;12.98;;
26413;SDS011;14108;53.668;10.288;2022-12-18T02:58:30;19.37;;;11.00;;
26413;SDS011;14108;53.668;10.288;2022-12-18T03:01:06;24.45;;;11.80;;
26413;SDS011;14108;53.668;10.288;2022-12-18T03:03:41;20.88;;;11.35;;
26413;SDS011;14108;53.668;10.288;2022-12-18T03:06:14;15.63;;;9.98;;
26413;SDS011;14108;53.668;10.288;2022-12-18T03:08:47;23.10;;;11.88;;
26413;SDS011;14108;53.668;10.288;2022-12-18T03:11:18;18.70;;;10.07;;
26413;SDS011;14108;53.668;10.288;2022-12-18T03:14:48;21.92;;;11.82;;
26413;SDS011;14108;53.668;10.288;2022-12-18T03:17:20;22.25;;;12.07;;
26413;SDS011;14108;53.668;10.288;2022-12-18T03:19:51;18.98;;;12.45;;
26413;SDS011;14108;53.668;10.288;2022-12-18T03:22:22;19.92;;;11.02;;
26413;SDS011;14108;53.668;10.288;2022-12-18T03:24:52;21.05;;;11.27;;
26413;SDS011;14108;53.668;10.288;2022-12-18T03:27:22;20.83;;;11.95;;
26413;SDS011;14108;53.668;10.288;2022-12-18T03:29:51;24.42;;;11.70;;
26413;SDS011;14108;53.668;10.288;2022-12-18T03:32:28;21.55;;;11.95;;
26413;SDS011;14108;53.668;10.288;2022-12-18T03:34:59;20.02;;;11.63;;
26413;SDS011;14108;53.668;10.288;2022-12-18T03:37:32;21.75;;;11.93;;
26413;SDS011;14108;53.668;10.288;2022-12-18T03:40:01;21.02;;;11.35;;
26413;SDS011;14108;53.668;10.288;2022-12-18T03:42:28;22.45;;;11.88;;
26413;SDS011;14108;53.668;10.288;2022-12-18T03:45:01;22.67;;;11.75;;
26413;SDS011;14108;53.668;10.288;2022-12-18T03:47:35;21.60;;;12.45;;
26413;SDS011;14108;53.668;10.288;2022-12-18T03:50:09;18.17;;;10.88;;
26413;SDS011;14108;53.668;10.288;2022-12-18T03:52:42;23.85;;;10.93;;
26413;SDS011;14108;53.668;10.288;2022-12-18T03:55:13;24.55;;;12.05;;
26413;SDS011;14108;53.668;10.288;2022-12-18T03:57:41;21.87;;;11.68;;
26413;SDS011;14108;53.668;10.288;2022-12-18T04:00:11;20.98;;;11.15;;
26413;SDS011;14108;53.668;10.288;2022-12-18T04:02:42;20.70;;;10.95;;
26413;SDS011;14108;53.668;10.288;2022-12-18T04:05:13;24.85;;;12.13;;
26413;SDS011;14108;53.668;10.288;2022-12-18T04:07:42;20.42;;;11.85;;
26413;SDS011;14108;53.668;10.288;2022-12-18T04:10:11;23.38;;;11.77;;
26413;SDS011;14108;53.668;10.288;2022-12-18T04:12:40;21.42;;;11.60;;
26413;SDS011;14108;53.668;10.288;2022-12-18T04:15:08;20.90;;;12.70;;
26413;SDS011;14108;53.668;10.288;2022-12-18T04:17:37;20.10;;;11.00;;
26413;SDS011;14108;53.668;10.288;2022-12-18T04:20:06;20.52;;;11.45;;
26413;SDS011;14108;53.668;10.288;2022-12-18T04:22:34;19.95;;;11.10;;
26413;SDS011;14108;53.668;10.288;2022-12-18T04:25:01;18.37;;;9.73;;
26413;SDS011;14108;53.668;10.288;2022-12-18T04:27:29;20.33;;;10.77;;
26413;SDS011;14108;53.668;10.288;2022-12-18T04:29:56;22.42;;;11.80;;
26413;SDS011;14108;53.668;10.288;2022-12-18T04:32:23;23.98;;;12.35;;
26413;SDS011;14108;53.668;10.288;2022-12-18T04:34:50;22.27;;;11.73;;
26413;SDS011;14108;53.668;10.288;2022-12-18T04:37:18;25.20;;;12.52;;
26413;SDS011;14108;53.668;10.288;2022-12-18T04:39:45;22.35;;;11.70;;
26413;SDS011;14108;53.668;10.288;2022-12-18T04:42:12;26.35;;;12.10;;
26413;SDS011;14108;53.668;10.288;2022-12-18T04:44:39;23.27;;;12.73;;
26413;SDS011;14108;53.668;10.288;2022-12-18T04:47:06;22.35;;;11.63;;
26413;SDS011;14108;53.668;10.288;2022-12-18T04:49:34;20.62;;;12.00;;
26413;SDS011;14108;53.668;10.288;2022-12-18T04:52:01;21.73;;;11.82;;
26413;SDS011;14108;53.668;10.288;2022-12-18T04:54:28;22.35;;;12.60;;
26413;SDS011;14108;53.668;10.288;2022-12-18T04:56:55;24.77;;;12.37;;
26413;SDS011;14108;53.668;10.288;2022-12-18T04:59:22;21.80;;;12.52;;
26413;SDS011;14108;53.668;10.288;2022-12-18T05:01:49;22.73;;;13.32;;
26413;SDS011;14108;53.668;10.288;2022-12-18T05:04:17;27.40;;;12.60;;
26413;SDS011;14108;53.668;10.288;2022-12-18T05:06:44;26.27;;;12.57;;
26413;SDS011;14108;53.668;10.288;2022-12-18T05:09:11;20.65;;;11.73;;
26413;SDS011;14108;53.668;10.288;2022-12-18T05:11:38;23.65;;;12.30;;
26413;SDS011;14108;53.668;10.288;2022-12-18T05:14:05;22.70;;;12.07;;
26413;SDS011;14108;53.668;10.288;2022-12-18T05:16:32;22.92;;;12.18;;
26413;SDS011;14108;53.668;10.288;2022-12-18T05:18:59;19.20;;;11.43;;
26413;SDS011;14108;53.668;10.288;2022-12-18T05:21:27;21.95;;;11.63;;
26413;SDS011;14108;53.668;10.288;2022-12-18T05:23:54;23.40;;;11.98;;
26413;SDS011;14108;53.668;10.288;2022-12-18T05:26:21;21.25;;;11.95;;
26413;SDS011;14108;53.668;10.288;2022-12-18T05:28:48;20.95;;;12.55;;
26413;SDS011;14108;53.668;10.288;2022-12-18T05:31:15;24.00;;;12.93;;
26413;SDS011;14108;53.668;10.288;2022-12-18T05:33:43;26.30;;;13.43;;
26413;SDS011;14108;53.668;10.288;2022-12-18T05:36:10;22.52;;;11.32;;
26413;SDS011;14108;53.668;10.288;2022-12-18T05:38:38;22.98;;;11.98;;
26413;SDS011;14108;53.668;10.288;2022-12-18T05:41:06;22.35;;;11.68;;
26413;SDS011;14108;53.668;10.288;2022-12-18T05:43:34;24.70;;;12.65;;
26413;SDS011;14108;53.668;10.288;2022-12-18T05:46:03;23.42;;;12.77;;
26413;SDS011;14108;53.668;10.288;2022-12-18T05:48:32;25.08;;;13.20;;
26413;SDS011;14108;53.668;10.288;2022-12-18T05:51:03;22.87;;;13.05;;
26413;SDS011;14108;53.668;10.288;2022-12-18T05:56:00;25.08;;;13.23;;
26413;SDS011;14108;53.668;10.288;2022-12-18T05:58:27;23.58;;;13.23;;
26413;SDS011;14108;53.668;10.288;2022-12-18T06:00:55;24.27;;;13.13;;
26413;SDS011;14108;53.668;10.288;2022-12-18T06:03:23;27.15;;;14.02;;
26413;SDS011;14108;53.668;10.288;2022-12-18T06:05:50;26.48;;;14.65;;
26413;SDS011;14108;53.668;10.288;2022-12-18T06:08:17;25.58;;;13.80;;
26413;SDS011;14108;53.668;10.288;2022-12-18T06:10:49;28.17;;;14.40;;
26413;SDS011;14108;53.668;10.288;2022-12-18T06:13:18;27.60;;;13.98;;
26413;SDS011;14108;53.668;10.288;2022-12-18T06:15:45;31.62;;;15.73;;
26413;SDS011;14108;53.668;10.288;2022-12-18T06:18:13;27.70;;;14.35;;
26413;SDS011;14108;53.668;10.288;2022-12-18T06:20:40;29.85;;;15.52;;
26413;SDS011;14108;53.668;10.288;2022-12-18T06:23:07;22.62;;;14.48;;
26413;SDS011;14108;53.668;10.288;2022-12-18T06:28:12;26.15;;;14.18;;
26413;SDS011;14108;53.668;10.288;2022-12-18T06:30:39;32.17;;;14.20;;
26413;SDS011;14108;53.668;10.288;2022-12-18T06:33:08;25.70;;;13.93;;
26413;SDS011;14108;53.668;10.288;2022-12-18T06:35:36;30.95;;;14.73;;
26413;SDS011;14108;53.668;10.288;2022-12-18T06:38:03;29.90;;;15.75;;
26413;SDS011;14108;53.668;10.288;2022-12-18T06:40:30;33.97;;;16.05;;
26413;SDS011;14108;53.668;10.288;2022-12-18T06:42:57;30.52;;;15.82;;
26413;SDS011;14108;53.668;10.288;2022-12-18T06:45:24;26.50;;;14.98;;
26413;SDS011;14108;53.668;10.288;2022-12-18T06:47:51;25.67;;;14.25;;
26413;SDS011;14108;53.668;10.288;2022-12-18T06:50:19;25.98;;;13.77;;
26413;SDS011;14108;53.668;10.288;2022-12-18T06:52:46;29.95;;;15.48;;
26413;SDS011;14108;53.668;10.288;2022-12-18T06:55:13;31.23;;;15.25;;
26413;SDS011;14108;53.668;10.288;2022-12-18T06:57:41;29.52;;;16.02;;
26413;SDS011;14108;53.668;10.288;2022-12-18T07:00:09;31.67;;;16.30;;
26413;SDS011;14108;53.668;10.288;2022-12-18T07:02:37;32.40;;;16.75;;
26413;SDS011;14108;53.668;10.288;2022-12-18T07:05:05;30.90;;;15.95;;
26413;SDS011;14108;53.668;10.288;2022-12-18T07:07:33;32.55;;;15.98;;
26413;SDS011;14108;53.668;10.288;2022-12-18T07:10:00;31.20;;;15.60;;
26413;SDS011;14108;53.668;10.288;2022-12-18T07:12:28;41.17;;;17.48;;
26413;SDS011;14108;53.668;10.288;2022-12-18T07:14:55;32.72;;;16.08;;
26413;SDS011;14108;53.668;10.288;2022-12-18T07:17:22;32.85;;;16.77;;
26413;SDS011;14108;53.668;10.288;2022-12-18T07:19:49;29.58;;;15.32;;
26413;SDS011;14108;53.668;10.288;2022-12-18T07:22:16;28.60;;;15.50;;
26413;SDS011;14108;53.668;10.288;2022-12-18T07:24:44;29.30;;;16.00;;
26413;SDS011;14108;53.668;10.288;2022-12-18T07:27:11;29.58;;;15.55;;
26413;SDS011;14108;53.668;10.288;2022-12-18T07:29:38;31.87;;;16.42;;
26413;SDS011;14108;53.668;10.288;2022-12-18T07:32:05;30.77;;;15.70;;
26413;SDS011;14108;53.668;10.288;2022-12-18T07:34:33;33.28;;;15.25;;
26413;SDS011;14108;53.668;10.288;2022-12-18T07:37:00;32.72;;;15.50;;
26413;SDS011;14108;53.668;10.288;2022-12-18T07:39:27;36.33;;;16.08;;
26413;SDS011;14108;53.668;10.288;2022-12-18T07:41:54;29.17;;;14.93;;
26413;SDS011;14108;53.668;10.288;2022-12-18T07:44:40;27.20;;;14.15;;
26413;SDS011;14108;53.668;10.288;2022-12-18T07:47:07;29.63;;;16.42;;
26413;SDS011;14108;53.668;10.288;2022-12-18T07:49:34;28.52;;;15.35;;
26413;SDS011;14108;53.668;10.288;2022-12-18T07:52:02;35.80;;;15.60;;
26413;SDS011;14108;53.668;10.288;2022-12-18T07:54:29;29.12;;;15.68;;
26413;SDS011;14108;53.668;10.288;2022-12-18T07:56:56;31.67;;;16.10;;
26413;SDS011;14108;53.668;10.288;2022-12-18T07:59:23;31.85;;;16.90;;
26413;SDS011;14108;53.668;10.288;2022-12-18T08:01:50;31.92;;;15.75;;
26413;SDS011;14108;53.668;10.288;2022-12-18T08:04:18;30.85;;;15.63;;
26413;SDS011;14108;53.668;10.288;2022-12-18T08:06:45;26.40;;;14.70;;
26413;SDS011;14108;53.668;10.288;2022-12-18T08:09:13;31.10;;;14.85;;
26413;SDS011;14108;53.668;10.288;2022-12-18T08:11:40;33.50;;;15.15;;
26413;SDS011;14108;53.668;10.288;2022-12-18T08:14:07;28.42;;;15.50;;
26413;SDS011;14108;53.668;10.288;2022-12-18T08:16:35;35.75;;;16.27;;
26413;SDS011;14108;53.668;10.288;2022-12-18T08:19:02;28.83;;;14.50;;
26413;SDS011;14108;53.668;10.288;2022-12-18T08:21:30;30.42;;;16.25;;
26413;SDS011;14108;53.668;10.288;2022-12-18T08:23:58;30.27;;;14.87;;
26413;SDS011;14108;53.668;10.288;2022-12-18T08:26:28;33.63;;;16.23;;
26413;SDS011;14108;53.668;10.288;2022-12-18T08:28:57;33.53;;;15.70;;
26413;SDS011;14108;53.668;10.288;2022-12-18T08:31:26;34.47;;;17.30;;
26413;SDS011;14108;53.668;10.288;2022-12-18T08:33:55;34.20;;;15.32;;
26413;SDS011;14108;53.668;10.288;2022-12-18T08:36:22;30.75;;;15.25;;
26413;SDS011;14108;53.668;10.288;2022-12-18T08:38:50;34.97;;;17.25;;
26413;SDS011;14108;53.668;10.288;2022-12-18T08:41:19;35.47;;;15.57;;
26413;SDS011;14108;53.668;10.288;2022-12-18T08:43:47;34.08;;;16.55;;
26413;SDS011;14108;53.668;10.288;2022-12-18T08:46:33;26.65;;;15.18;;
26413;SDS011;14108;53.668;10.288;2022-12-18T08:49:02;33.15;;;16.20;;
26413;SDS011;14108;53.668;10.288;2022-12-18T08:51:29;32.17;;;16.05;;
26413;SDS011;14108;53.668;10.288;2022-12-18T08:53:57;35.17;;;17.05;;
26413;SDS011;14108;53.668;10.288;2022-12-18T08:56:24;33.25;;;16.85;;
26413;SDS011;14108;53.668;10.288;2022-12-18T08:58:52;37.15;;;17.15;;
26413;SDS011;14108;53.668;10.288;2022-12-18T09:01:20;33.35;;;15.20;;
26413;SDS011;14108;53.668;10.288;2022-12-18T09:03:48;31.55;;;15.38;;
26413;SDS011;14108;53.668;10.288;2022-12-18T09:06:16;33.10;;;16.60;;
26413;SDS011;14108;53.668;10.288;2022-12-18T09:08:44;32.33;;;17.08;;
26413;SDS011;14108;53.668;10.288;2022-12-18T09:11:14;37.83;;;17.08;;
26413;SDS011;14108;53.668;10.288;2022-12-18T09:13:44;29.58;;;15.63;;
26413;SDS011;14108;53.668;10.288;2022-12-18T09:16:11;27.48;;;14.25;;
26413;SDS011;14108;53.668;10.288;2022-12-18T09:18:38;33.53;;;15.80;;
26413;SDS011;14108;53.668;10.288;2022-12-18T09:21:10;33.65;;;17.12;;
26413;SDS011;14108;53.668;10.288;2022-12-18T09:23:38;30.37;;;16.23;;
26413;SDS011;14108;53.668;10.288;2022-12-18T09:26:05;30.92;;;15.70;;
26413;SDS011;14108;53.668;10.288;2022-12-18T09:28:32;29.60;;;14.95;;
26413;SDS011;14108;53.668;10.288;2022-12-18T09:31:02;30.60;;;15.13;;
26413;SDS011;14108;53.668;10.288;2022-12-18T09:33:31;30.35;;;15.98;;
26413;SDS011;14108;53.668;10.288;2022-12-18T09:36:00;39.03;;;16.08;;
26413;SDS011;14108;53.668;10.288;2022-12-18T09:38:28;37.35;;;16.85;;
26413;SDS011;14108;53.668;10.288;2022-12-18T09:40:56;31.95;;;16.37;;
26413;SDS011;14108;53.668;10.288;2022-12-18T09:43:26;30.33;;;15.18;;
26413;SDS011;14108;53.668;10.288;2022-12-18T09:46:00;28.33;;;13.85;;
26413;SDS011;14108;53.668;10.288;2022-12-18T09:48:32;34.08;;;16.00;;
26413;SDS011;14108;53.668;10.288;2022-12-18T09:51:03;33.22;;;15.45;;
26413;SDS011;14108;53.668;10.288;2022-12-18T09:53:38;30.73;;;15.13;;
26413;SDS011;14108;53.668;10.288;2022-12-18T09:56:11;25.00;;;13.45;;
26413;SDS011;14108;53.668;10.288;2022-12-18T09:58:43;32.78;;;16.20;;
26413;SDS011;14108;53.668;10.288;2022-12-18T10:01:19;32.25;;;14.93;;
26413;SDS011;14108;53.668;10.288;2022-12-18T10:03:48;27.17;;;13.35;;
26413;SDS011;14108;53.668;10.288;2022-12-18T10:06:18;26.62;;;13.50;;
26413;SDS011;14108;53.668;10.288;2022-12-18T10:08:53;28.52;;;14.10;;
26413;SDS011;14108;53.668;10.288;2022-12-18T10:11:31;26.42;;;12.48;;
26413;SDS011;14108;53.668;10.288;2022-12-18T10:14:05;26.65;;;14.45;;
26413;SDS011;14108;53.668;10.288;2022-12-18T10:16:40;33.13;;;14.63;;
26413;SDS011;14108;53.668;10.288;2022-12-18T10:19:26;29.98;;;14.40;;
26413;SDS011;14108;53.668;10.288;2022-12-18T10:22:03;32.75;;;14.32;;
26413;SDS011;14108;53.668;10.288;2022-12-18T10:24:44;34.25;;;14.45;;
26413;SDS011;14108;53.668;10.288;2022-12-18T10:27:21;33.22;;;15.23;;
26413;SDS011;14108;53.668;10.288;2022-12-18T10:29:50;33.10;;;15.60;;
26413;SDS011;14108;53.668;10.288;2022-12-18T10:32:18;29.35;;;14.55;;
26413;SDS011;14108;53.668;10.288;2022-12-18T10:34:47;30.55;;;15.43;;
26413;SDS011;14108;53.668;10.288;2022-12-18T10:37:16;31.95;;;14.93;;
26413;SDS011;14108;53.668;10.288;2022-12-18T10:39:44;32.88;;;14.85;;
26413;SDS011;14108;53.668;10.288;2022-12-18T10:42:16;32.58;;;15.30;;
26413;SDS011;14108;53.668;10.288;2022-12-18T10:44:43;34.00;;;15.13;;
26413;SDS011;14108;53.668;10.288;2022-12-18T10:47:12;42.42;;;18.50;;
26413;SDS011;14108;53.668;10.288;2022-12-18T10:49:45;38.33;;;16.62;;
26413;SDS011;14108;53.668;10.288;2022-12-18T10:52:16;41.30;;;16.17;;
26413;SDS011;14108;53.668;10.288;2022-12-18T10:54:48;33.15;;;16.37;;
26413;SDS011;14108;53.668;10.288;2022-12-18T10:57:20;41.25;;;18.33;;
26413;SDS011;14108;53.668;10.288;2022-12-18T10:59:58;38.75;;;17.45;;
26413;SDS011;14108;53.668;10.288;2022-12-18T11:02:28;40.40;;;17.42;;
26413;SDS011;14108;53.668;10.288;2022-12-18T11:05:01;34.78;;;16.15;;
26413;SDS011;14108;53.668;10.288;2022-12-18T11:07:48;34.75;;;16.02;;
26413;SDS011;14108;53.668;10.288;2022-12-18T11:10:17;35.22;;;16.00;;
26413;SDS011;14108;53.668;10.288;2022-12-18T11:12:46;33.35;;;15.20;;
26413;SDS011;14108;53.668;10.288;2022-12-18T11:15:15;36.35;;;17.12;;
26413;SDS011;14108;53.668;10.288;2022-12-18T11:17:45;36.00;;;17.60;;
26413;SDS011;14108;53.668;10.288;2022-12-18T11:20:20;39.30;;;17.20;;
26413;SDS011;14108;53.668;10.288;2022-12-18T11:22:57;37.58;;;17.00;;
26413;SDS011;14108;53.668;10.288;2022-12-18T11:25:27;35.97;;;17.77;;
26413;SDS011;14108;53.668;10.288;2022-12-18T11:27:56;32.13;;;16.15;;
26413;SDS011;14108;53.668;10.288;2022-12-18T11:30:26;61.40;;;31.50;;
26413;SDS011;14108;53.668;10.288;2022-12-18T11:33:00;65.68;;;36.42;;
26413;SDS011;14108;53.668;10.288;2022-12-18T11:35:39;50.05;;;23.90;;
26413;SDS011;14108;53.668;10.288;2022-12-18T11:38:14;47.80;;;24.75;;
26413;SDS011;14108;53.668;10.288;2022-12-18T11:40:50;56.35;;;34.22;;
26413;SDS011;14108;53.668;10.288;2022-12-18T11:43:25;47.05;;;25.20;;
26413;SDS011;14108;53.668;10.288;2022-12-18T11:48:25;38.22;;;19.60;;
26413;SDS011;14108;53.668;10.288;2022-12-18T11:50:56;38.00;;;19.95;;
26413;SDS011;14108;53.668;10.288;2022-12-18T11:53:25;36.50;;;18.45;;
26413;SDS011;14108;53.668;10.288;2022-12-18T11:56:00;36.92;;;18.02;;
26413;SDS011;14108;53.668;10.288;2022-12-18T11:58:39;43.03;;;19.05;;
26413;SDS011;14108;53.668;10.288;2022-12-18T12:01:15;32.80;;;16.65;;
26413;SDS011;14108;53.668;10.288;2022-12-18T12:04:09;42.47;;;18.08;;
26413;SDS011;14108;53.668;10.288;2022-12-18T12:06:55;35.72;;;16.52;;
26413;SDS011;14108;53.668;10.288;2022-12-18T12:09:30;32.55;;;16.45;;
26413;SDS011;14108;53.668;10.288;2022-12-18T12:12:07;31.77;;;15.85;;
26413;SDS011;14108;53.668;10.288;2022-12-18T12:14:48;31.62;;;15.23;;
26413;SDS011;14108;53.668;10.288;2022-12-18T12:17:24;39.03;;;18.10;;
26413;SDS011;14108;53.668;10.288;2022-12-18T12:20:00;34.47;;;14.77;;
26413;SDS011;14108;53.668;10.288;2022-12-18T12:22:35;36.08;;;16.25;;
26413;SDS011;14108;53.668;10.288;2022-12-18T12:25:14;33.20;;;15.18;;
26413;SDS011;14108;53.668;10.288;2022-12-18T12:27:53;34.08;;;14.52;;
26413;SDS011;14108;53.668;10.288;2022-12-18T12:30:29;35.70;;;14.63;;
26413;SDS011;14108;53.668;10.288;2022-12-18T12:33:11;35.47;;;15.25;;
26413;SDS011;14108;53.668;10.288;2022-12-18T12:35:49;35.53;;;16.65;;
26413;SDS011;14108;53.668;10.288;2022-12-18T12:38:21;34.88;;;15.52;;
26413;SDS011;14108;53.668;10.288;2022-12-18T12:40:53;40.03;;;15.95;;
26413;SDS011;14108;53.668;10.288;2022-12-18T12:43:25;36.05;;;15.38;;
26413;SDS011;14108;53.668;10.288;2022-12-18T12:46:04;37.03;;;15.60;;
26413;SDS011;14108;53.668;10.288;2022-12-18T12:48:36;35.78;;;15.98;;
26413;SDS011;14108;53.668;10.288;2022-12-18T12:51:08;37.85;;;15.90;;
26413;SDS011;14108;53.668;10.288;2022-12-18T12:53:39;32.38;;;15.48;;
26413;SDS011;14108;53.668;10.288;2022-12-18T12:56:08;35.53;;;15.38;;
26413;SDS011;14108;53.668;10.288;2022-12-18T12:58:38;34.05;;;15.45;;
26413;SDS011;14108;53.668;10.288;2022-12-18T13:01:14;36.33;;;16.23;;
26413;SDS011;14108;53.668;10.288;2022-12-18T13:03:52;37.65;;;16.67;;
26413;SDS011;14108;53.668;10.288;2022-12-18T13:06:33;32.03;;;15.52;;
26413;SDS011;14108;53.668;10.288;2022-12-18T13:09:06;35.13;;;15.35;;
26413;SDS011;14108;53.668;10.288;2022-12-18T13:11:37;38.15;;;16.70;;
26413;SDS011;14108;53.668;10.288;2022-12-18T13:14:26;35.95;;;16.60;;
26413;SDS011;14108;53.668;10.288;2022-12-18T13:17:15;40.25;;;17.58;;
26413;SDS011;14108;53.668;10.288;2022-12-18T13:22:22;41.95;;;18.33;;
26413;SDS011;14108;53.668;10.288;2022-12-18T13:24:56;48.55;;;18.12;;
26413;SDS011;14108;53.668;10.288;2022-12-18T13:27:45;46.15;;;18.58;;
26413;SDS011;14108;53.668;10.288;2022-12-18T13:36:28;47.65;;;17.55;;
26413;SDS011;14108;53.668;10.288;2022-12-18T13:39:10;43.95;;;18.70;;
26413;SDS011;14108;53.668;10.288;2022-12-18T13:45:43;46.65;;;19.08;;
26413;SDS011;14108;53.668;10.288;2022-12-18T13:48:17;41.97;;;17.58;;
26413;SDS011;14108;53.668;10.288;2022-12-18T13:50:50;42.38;;;17.62;;
26413;SDS011;14108;53.668;10.288;2022-12-18T13:53:21;46.92;;;18.25;;
26413;SDS011;14108;53.668;10.288;2022-12-18T13:55:53;45.97;;;17.83;;
26413;SDS011;14108;53.668;10.288;2022-12-18T13:58:20;41.60;;;18.62;;
26413;SDS011;14108;53.668;10.288;2022-12-18T14:00:47;45.35;;;19.62;;
26413;SDS011;14108;53.668;10.288;2022-12-18T14:03:16;47.17;;;18.77;;
26413;SDS011;14108;53.668;10.288;2022-12-18T14:05:46;41.95;;;17.33;;
26413;SDS011;14108;53.668;10.288;2022-12-18T14:08:20;43.50;;;19.12;;
26413;SDS011;14108;53.668;10.288;2022-12-18T14:10:49;46.10;;;17.23;;
26413;SDS011;14108;53.668;10.288;2022-12-18T14:13:19;51.83;;;19.90;;
26413;SDS011;14108;53.668;10.288;2022-12-18T14:15:50;48.22;;;17.83;;
26413;SDS011;14108;53.668;10.288;2022-12-18T14:18:20;48.10;;;18.52;;
26413;SDS011;14108;53.668;10.288;2022-12-18T14:20:50;45.45;;;18.05;;
26413;SDS011;14108;53.668;10.288;2022-12-18T14:23:26;48.00;;;18.25;;
26413;SDS011;14108;53.668;10.288;2022-12-18T14:25:55;50.12;;;19.17;;
26413;SDS011;14108;53.668;10.288;2022-12-18T14:28:23;52.25;;;19.30;;
26413;SDS011;14108;53.668;10.288;2022-12-18T14:30:52;51.60;;;20.08;;
26413;SDS011;14108;53.668;10.288;2022-12-18T14:33:21;53.33;;;18.83;;
26413;SDS011;14108;53.668;10.288;2022-12-18T14:35:53;46.83;;;18.95;;
26413;SDS011;14108;53.668;10.288;2022-12-18T14:38:23;55.15;;;20.48;;
26413;SDS011;14108;53.668;10.288;2022-12-18T14:40:53;52.40;;;19.90;;
26413;SDS011;14108;53.668;10.288;2022-12-18T14:43:31;51.58;;;19.85;;
26413;SDS011;14108;53.668;10.288;2022-12-18T14:45:59;51.20;;;19.27;;
26413;SDS011;14108;53.668;10.288;2022-12-18T14:48:34;50.42;;;21.23;;
26413;SDS011;14108;53.668;10.288;2022-12-18T14:51:04;43.85;;;17.55;;
26413;SDS011;14108;53.668;10.288;2022-12-18T14:53:37;62.30;;;19.55;;